Meteo Giornale » Osservazioni meteo Stati Uniti (USA) » Boulder City
ore: 10:35 - Osservazioni Meteo Boulder City
Lat. 35° 57' N Lon. 114° 52' W Alt. 671 metri s.l.m.
32 °C
Nuvoloso
Temp. 24 Ore
27 °C
39 °C
Sud-Est
18.5 Km/h
Dew point 14 °C
Umidità 33 %
Visibilità 10 Km
Il sole sorge alle ore 06:10
Il sole tramonta alle ore 19:08
| Data e Ora | Cielo e Fenomeni | T °C | DP °C | Um. % | Pres. hPa | Vis. km | Vento km/h | |
|---|---|---|---|---|---|---|---|---|
| Oggi h: 10:35 | Nuvoloso | 32 | 14 | 33 | 1012 | 10 | SE 18.5 | |
| Oggi h: 10:15 | Nuvoloso | 32 | 14 | 33 | 1012 | 10 | S/SE 24 | |
| Oggi h: 09:55 | Sereno | 32 | 13 | 31 | 1012 | 10 | S/SE 27.8 | |
| Oggi h: 09:35 | Poco Nuvoloso | 32 | 14 | 33 | 1012 | 10 | SE 24 | |
| Oggi h: 09:15 | Nuvoloso | 32 | 14 | 33 | 1012 | 10 | S/SE 27.8 | |
| Oggi h: 08:55 | Poco Nuvoloso | 31 | 14 | 35 | 1012 | 10 | S 24 | |
| Oggi h: 08:35 | Sereno | 31 | 15 | 37 | 1012 | 10 | S/SE 18.5 | |
| Oggi h: 08:15 | Sereno | 30 | 15 | 40 | 1012 | 10 | SO 14.8 | |
| Oggi h: 07:55 | Sereno | 30 | 15 | 40 | 1012 | 10 | S/SO 18.5 | |
| Oggi h: 07:35 | Sereno | 30 | 15 | 40 | 1012 | 10 | S/SE 11.1 | |
| Oggi h: 07:15 | Sereno | 28 | 15 | 45 | 1012 | 10 | S/SO 9.3 | |
| Oggi h: 06:55 | Sereno | 28 | 14 | 42 | 1011 | 10 | SO 13 | |
| Oggi h: 06:35 | Sereno | 28 | 14 | 42 | 1011 | 10 | S/SO 16.7 | |
| Oggi h: 06:15 | Sereno | 27 | 14 | 44 | 1011 | 10 | SO 11.1 | |
| Oggi h: 05:55 | Sereno | 28 | 13 | 39 | 1010 | 10 | S/SO 14.8 | |
| Oggi h: 05:35 | Sereno | 27 | 12 | 39 | 1010 | 10 | N 0 | |
| Oggi h: 05:15 | Sereno | 27 | 14 | 44 | 1010 | 10 | SO 9.3 | |
| Oggi h: 04:55 | Sereno | 28 | 14 | 42 | 1010 | 10 | S/SE 9.3 | |
| Oggi h: 04:35 | Sereno | 28 | 13 | 39 | 1010 | 10 | S/SE 7.4 | |
| Oggi h: 04:15 | Sereno | 28 | 14 | 42 | 1010 | 10 | S/SE 9.3 | |
| Oggi h: 03:55 | Sereno | 29 | 15 | 42 | 1010 | 10 | S/SE 9.3 | |
| Oggi h: 03:35 | Sereno | 28 | 15 | 45 | 1010 | 10 | N 7.4 | |
| Oggi h: 03:15 | Sereno | 27 | 13 | 42 | 1010 | 10 | E/NE 9.3 | |
| Oggi h: 02:55 | Sereno | 28 | 13 | 39 | 1010 | 10 | N 0 | |
| Oggi h: 02:35 | Sereno | 28 | 12 | 37 | 1010 | 10 | N 0 | |
| Oggi h: 02:15 | Sereno | 29 | 12 | 35 | 1010 | 10 | N 0 | |
| Oggi h: 01:55 | Sereno | 30 | 13 | 35 | 1010 | 10 | SO 7.4 | |
| Oggi h: 01:35 | Sereno | 30 | 14 | 37 | 1010 | 10 | N 0 | |
| Oggi h: 01:15 | Sereno | 29 | 14 | 39 | 1010 | 10 | N 0 | |
| Oggi h: 00:55 | Sereno | 30 | 14 | 37 | 1010 | 10 | S 9.3 | |
| Oggi h: 00:35 | Sereno | 31 | 14 | 35 | 1010 | 10 | S 14.8 | |
| Oggi h: 00:15 | Sereno | 30 | 13 | 35 | 1010 | 10 | SO 9.3 | |
| Ieri h: 23:55 | Sereno | 30 | 14 | 37 | 1010 | 10 | SO 7.4 | |
| Ieri h: 23:35 | Sereno | 30 | 14 | 37 | 1010 | 10 | N 5.5 | |
| Ieri h: 23:15 | Sereno | 30 | 13 | 35 | 1010 | 10 | N 5.5 | |
| Ieri h: 22:55 | Sereno | 30 | 9 | 27 | 1010 | 10 | N 5.5 | |
| Ieri h: 22:35 | Sereno | 30 | 5 | 20 | 1010 | 10 | N 0 | |
| Ieri h: 22:15 | Sereno | 32 | 4 | 17 | 1010 | 10 | N 0 | |
| Ieri h: 21:55 | Sereno | 30 | 7 | 23 | 1009 | 10 | E/NE 7.4 | |
| Ieri h: 21:35 | Sereno | 29 | 8 | 26 | 1009 | 10 | N 0 | |
| Ieri h: 21:15 | Sereno | 30 | 8 | 25 | 1009 | 10 | N 0 | |
| Ieri h: 20:55 | Sereno | 31 | 8 | 23 | 1009 | 10 | N 0 | |
| Ieri h: 20:35 | Sereno | 33 | 5 | 17 | 1009 | 10 | N 0 | |
| Ieri h: 20:15 | Sereno | 33 | 5 | 17 | 1008 | 10 | N 5.5 | |
| Ieri h: 19:55 | Sereno | 34 | 3 | 14 | 1008 | 10 | N 0 | |
| Ieri h: 19:35 | Sereno | 35 | 3 | 13 | 1008 | 10 | O/SO 13 | |
| Ieri h: 19:15 | Sereno | 35 | 2 | 12 | 1008 | 10 | O 14.8 | |
| Ieri h: 18:55 | Sereno | 36 | 3 | 12 | 1008 | 10 | O/SO 16.7 | |
| Ieri h: 18:35 | Sereno | 37 | 3 | 12 | 1008 | 10 | O 24 | |
| Ieri h: 18:15 | Sereno | 37 | 3 | 12 | 1008 | 10 | O 14.8 | |
| Ieri h: 17:55 | Sereno | 37 | 3 | 12 | 1008 | 10 | O 16.7 | |
| Ieri h: 17:35 | Sereno | 38 | 3 | 11 | 1008 | 10 | O 20.3 | |
| Ieri h: 17:15 | Sereno | 38 | 3 | 11 | 1008 | 10 | O 18.5 | |
| Ieri h: 16:55 | Sereno | 38 | 3 | 11 | 1008 | 10 | O 31.5 | |
| Ieri h: 16:35 | Sereno | 38 | 3 | 11 | 1008 | 10 | O/NO 18.5 | |
| Ieri h: 16:15 | Sereno | 39 | 4 | 11 | 1008 | 10 | O/SO 16.7 | |
| Ieri h: 15:55 | Sereno | 39 | 4 | 11 | 1008 | 10 | O/SO 27.8 | |
| Ieri h: 15:35 | Sereno | 39 | 4 | 11 | 1008 | 10 | O 18.5 | |
| Ieri h: 15:15 | Sereno | 39 | 4 | 11 | 1009 | 10 | SO 24 | |
| Ieri h: 14:55 | Sereno | 38 | 4 | 12 | 1009 | 10 | O 24 | |
| Ieri h: 14:35 | Sereno | 39 | 4 | 11 | 1009 | 10 | S/SO 22.2 | |
| Ieri h: 14:15 | Sereno | 39 | 4 | 11 | 1009 | 10 | O/SO 24 | |
| Ieri h: 13:55 | Sereno | 38 | 4 | 12 | 1010 | 10 | SO 24 | |
| Ieri h: 13:35 | Sereno | 38 | 4 | 12 | 1010 | 10 | SO 27.8 | |
| Ieri h: 13:15 | Sereno | 38 | 4 | 12 | 1010 | 10 | N 11.1 | |
| Ieri h: 12:55 | Sereno | 38 | 4 | 12 | 1010 | 10 | S/SO 27.8 | |
| Ieri h: 12:35 | Sereno | 38 | 4 | 12 | 1010 | 10 | SO 27.8 | |
| Ieri h: 12:15 | Sereno | 37 | 4 | 12 | 1011 | 10 | O/SO 24 | |
| Ieri h: 11:55 | Sereno | 36 | 4 | 13 | 1011 | 10 | SO 25.9 | |
| Ieri h: 11:35 | Sereno | 36 | 3 | 12 | 1011 | 10 | O/SO 20.3 | |
| Ieri h: 11:15 | Sereno | 35 | 3 | 13 | 1011 | 10 | O/SO 20.3 | |
| Ieri h: 10:55 | Sereno | 34 | 3 | 14 | 1012 | 10 | SO 22.2 | |
| Ieri h: 10:35 | Sereno | 35 | 3 | 13 | 1012 | 10 | S/SO 16.7 | |



